Página principal
METAR-TAF:

METAR-TAF

Aeroportos :

Xian, China

Aeroporto Internacional de Xi'an Xianyang

latitude: 34-26N, longitude: 108-45E, altura: 479 m

Observação actual do tempo

O boletim foi feito há 52 minutos, às 00:00 UTC
Vento 6 kt de nordeste, variando entre norte e es-nordeste
Temperatura 0°C
Humidade 74%
Pressão 1013 hPa
Visibilidade: 7000 m

METAR: ZLXY 230000Z 04003MPS 010V070 7000 NSC 00/M04 Q1013 NOSIG

Hora: 08:52 (00:52 UTC)

Previsão

O boletim foi feito há 5 horas e 43 minutos, às 19:09 UTC
Previsão válida de 23 às 00 UTC a 23 às 24 UTC
Vento 6 kt de es-nordeste
Visibilidade: 3000 m
bruma
Tornando-se
de 23 às 14 UTC a 23 às 15 UTC
Vento 10 kt de oes-sudoeste

TAF: ZLXY 221909Z 2300/2324 06003MPS 3000 HZ NSC TX15/2307Z TNM04/23Z BECMG 2314/2315 24005MPS

Observações e previsões do tempo de mais de 4000 aeroportos (mensagens METAR e TAF).

As estações disponíveis são os pontos amarelos e vermelhos sobre o mapa.

Mova o rato sobre o mapa para ver o nome da estação.

Depois clique no ponto para visualizar as observações e previsões meteorológicas.

Para alterar o mapa : clique nos botões verdes com uma cruz preta para aumentar o zoom; no botão verde com uma pitada de zoom; ou nas setas verdes para mapas adjacentes.


METAR-TAF: